sensor_id;sensor_type;location;lat;lon;timestamp;temperature;humidity
1347;DHT22;667;48.796;9.480;2022-11-20T00:00:28;9.60;87.80
1347;DHT22;667;48.796;9.480;2022-11-20T00:02:53;9.60;87.80
1347;DHT22;667;48.796;9.480;2022-11-20T00:05:19;9.60;87.80
1347;DHT22;667;48.796;9.480;2022-11-20T00:07:46;9.50;87.70
1347;DHT22;667;48.796;9.480;2022-11-20T00:10:11;9.50;87.70
1347;DHT22;667;48.796;9.480;2022-11-20T00:12:37;9.50;87.90
1347;DHT22;667;48.796;9.480;2022-11-20T00:15:04;9.50;88.10
1347;DHT22;667;48.796;9.480;2022-11-20T00:17:29;9.50;87.90
1347;DHT22;667;48.796;9.480;2022-11-20T00:19:55;9.50;88.50
1347;DHT22;667;48.796;9.480;2022-11-20T00:22:20;9.50;87.80
1347;DHT22;667;48.796;9.480;2022-11-20T00:24:46;9.50;87.90
1347;DHT22;667;48.796;9.480;2022-11-20T00:27:11;9.50;88.10
1347;DHT22;667;48.796;9.480;2022-11-20T00:29:37;9.50;88.00
1347;DHT22;667;48.796;9.480;2022-11-20T00:32:03;9.50;87.80
1347;DHT22;667;48.796;9.480;2022-11-20T00:34:28;9.50;87.70
1347;DHT22;667;48.796;9.480;2022-11-20T00:36:54;9.40;87.60
1347;DHT22;667;48.796;9.480;2022-11-20T00:39:19;9.40;87.70
1347;DHT22;667;48.796;9.480;2022-11-20T00:41:45;9.40;87.60
1347;DHT22;667;48.796;9.480;2022-11-20T00:44:10;9.40;87.60
1347;DHT22;667;48.796;9.480;2022-11-20T00:46:36;9.40;87.70
1347;DHT22;667;48.796;9.480;2022-11-20T00:49:01;9.40;87.70
1347;DHT22;667;48.796;9.480;2022-11-20T00:51:27;9.40;87.70
1347;DHT22;667;48.796;9.480;2022-11-20T00:53:56;9.40;87.80
1347;DHT22;667;48.796;9.480;2022-11-20T00:56:22;9.40;87.90
1347;DHT22;667;48.796;9.480;2022-11-20T00:58:48;9.30;87.90
1347;DHT22;667;48.796;9.480;2022-11-20T01:01:22;9.30;88.70
1347;DHT22;667;48.796;9.480;2022-11-20T01:03:53;9.40;88.10
1347;DHT22;667;48.796;9.480;2022-11-20T01:08:46;9.30;88.00
1347;DHT22;667;48.796;9.480;2022-11-20T01:11:18;9.30;88.00
1347;DHT22;667;48.796;9.480;2022-11-20T01:13:45;9.30;88.00
1347;DHT22;667;48.796;9.480;2022-11-20T01:16:17;9.30;88.10
1347;DHT22;667;48.796;9.480;2022-11-20T01:18:45;9.30;88.20
1347;DHT22;667;48.796;9.480;2022-11-20T01:21:20;9.30;88.10
1347;DHT22;667;48.796;9.480;2022-11-20T01:23:47;9.30;88.20
1347;DHT22;667;48.796;9.480;2022-11-20T01:26:14;9.30;88.40
1347;DHT22;667;48.796;9.480;2022-11-20T01:28:41;9.30;88.40
1347;DHT22;667;48.796;9.480;2022-11-20T01:31:23;9.40;88.50
1347;DHT22;667;48.796;9.480;2022-11-20T01:33:51;9.40;88.50
1347;DHT22;667;48.796;9.480;2022-11-20T01:36:18;9.40;88.50
1347;DHT22;667;48.796;9.480;2022-11-20T01:38:45;9.30;88.40
1347;DHT22;667;48.796;9.480;2022-11-20T01:41:12;9.40;88.40
1347;DHT22;667;48.796;9.480;2022-11-20T01:43:57;9.40;88.40
1347;DHT22;667;48.796;9.480;2022-11-20T01:46:23;9.40;88.30
1347;DHT22;667;48.796;9.480;2022-11-20T01:49:20;9.40;88.40
1347;DHT22;667;48.796;9.480;2022-11-20T01:51:46;9.40;88.30
1347;DHT22;667;48.796;9.480;2022-11-20T01:54:19;9.40;88.10
1347;DHT22;667;48.796;9.480;2022-11-20T01:56:48;9.40;87.90
1347;DHT22;667;48.796;9.480;2022-11-20T01:59:17;9.40;87.60
1347;DHT22;667;48.796;9.480;2022-11-20T02:01:44;9.40;87.30
1347;DHT22;667;48.796;9.480;2022-11-20T02:04:10;9.40;87.00
1347;DHT22;667;48.796;9.480;2022-11-20T02:06:42;9.50;86.90
1347;DHT22;667;48.796;9.480;2022-11-20T02:09:09;9.50;86.60
1347;DHT22;667;48.796;9.480;2022-11-20T02:11:35;9.50;86.40
1347;DHT22;667;48.796;9.480;2022-11-20T02:14:01;9.50;86.10
1347;DHT22;667;48.796;9.480;2022-11-20T02:16:33;9.50;86.00
1347;DHT22;667;48.796;9.480;2022-11-20T02:19:02;9.50;85.60
1347;DHT22;667;48.796;9.480;2022-11-20T02:22:16;9.50;85.30
1347;DHT22;667;48.796;9.480;2022-11-20T02:24:33;9.50;85.10
1347;DHT22;667;48.796;9.480;2022-11-20T02:27:06;9.50;84.90
1347;DHT22;667;48.796;9.480;2022-11-20T02:30:20;9.50;84.70
1347;DHT22;667;48.796;9.480;2022-11-20T02:32:32;9.50;84.60
1347;DHT22;667;48.796;9.480;2022-11-20T02:34:58;9.40;84.50
1347;DHT22;667;48.796;9.480;2022-11-20T02:37:34;9.40;84.50
1347;DHT22;667;48.796;9.480;2022-11-20T02:40:01;9.40;84.40
1347;DHT22;667;48.796;9.480;2022-11-20T02:42:26;9.40;84.30
1347;DHT22;667;48.796;9.480;2022-11-20T02:44:52;9.40;84.20
1347;DHT22;667;48.796;9.480;2022-11-20T02:47:17;9.40;84.20
1347;DHT22;667;48.796;9.480;2022-11-20T02:49:43;9.40;84.40
1347;DHT22;667;48.796;9.480;2022-11-20T02:52:08;9.40;84.50
1347;DHT22;667;48.796;9.480;2022-11-20T02:54:34;9.40;84.50
1347;DHT22;667;48.796;9.480;2022-11-20T02:56:59;9.40;84.50
1347;DHT22;667;48.796;9.480;2022-11-20T02:59:25;9.40;84.50
1347;DHT22;667;48.796;9.480;2022-11-20T03:01:50;9.40;84.50
1347;DHT22;667;48.796;9.480;2022-11-20T03:04:16;9.40;85.40
1347;DHT22;667;48.796;9.480;2022-11-20T03:06:42;9.40;84.70
1347;DHT22;667;48.796;9.480;2022-11-20T03:09:07;9.40;84.70
1347;DHT22;667;48.796;9.480;2022-11-20T03:11:33;9.40;84.80
1347;DHT22;667;48.796;9.480;2022-11-20T03:14:02;9.40;84.70
1347;DHT22;667;48.796;9.480;2022-11-20T03:16:27;9.40;84.60
1347;DHT22;667;48.796;9.480;2022-11-20T03:18:53;9.40;84.60
1347;DHT22;667;48.796;9.480;2022-11-20T03:21:19;9.40;84.70
1347;DHT22;667;48.796;9.480;2022-11-20T03:23:44;9.40;84.80
1347;DHT22;667;48.796;9.480;2022-11-20T03:28:37;9.40;84.90
1347;DHT22;667;48.796;9.480;2022-11-20T03:31:11;9.40;85.00
1347;DHT22;667;48.796;9.480;2022-11-20T03:33:38;9.40;84.90
1347;DHT22;667;48.796;9.480;2022-11-20T03:36:07;9.50;85.00
1347;DHT22;667;48.796;9.480;2022-11-20T03:38:33;9.50;84.90
1347;DHT22;667;48.796;9.480;2022-11-20T03:41:04;9.50;84.70
1347;DHT22;667;48.796;9.480;2022-11-20T03:43:31;9.50;84.80
1347;DHT22;667;48.796;9.480;2022-11-20T03:45:57;9.50;84.80
1347;DHT22;667;48.796;9.480;2022-11-20T03:48:23;9.50;84.60
1347;DHT22;667;48.796;9.480;2022-11-20T03:50:48;9.40;84.60
1347;DHT22;667;48.796;9.480;2022-11-20T03:53:15;9.40;84.50
1347;DHT22;667;48.796;9.480;2022-11-20T03:55:41;9.40;84.40
1347;DHT22;667;48.796;9.480;2022-11-20T03:58:07;9.40;84.40
1347;DHT22;667;48.796;9.480;2022-11-20T04:00:32;9.40;84.00
1347;DHT22;667;48.796;9.480;2022-11-20T04:02:59;9.40;83.80
1347;DHT22;667;48.796;9.480;2022-11-20T04:05:24;9.40;83.90
1347;DHT22;667;48.796;9.480;2022-11-20T04:07:50;9.40;83.90
1347;DHT22;667;48.796;9.480;2022-11-20T04:10:16;9.30;83.60
1347;DHT22;667;48.796;9.480;2022-11-20T04:12:41;9.30;83.80
1347;DHT22;667;48.796;9.480;2022-11-20T04:15:07;9.30;83.70
1347;DHT22;667;48.796;9.480;2022-11-20T04:17:33;9.30;83.70
1347;DHT22;667;48.796;9.480;2022-11-20T04:19:58;9.30;83.80
1347;DHT22;667;48.796;9.480;2022-11-20T04:22:24;9.30;83.60
1347;DHT22;667;48.796;9.480;2022-11-20T04:24:49;9.30;83.50
1347;DHT22;667;48.796;9.480;2022-11-20T04:27:15;9.30;83.40
1347;DHT22;667;48.796;9.480;2022-11-20T04:29:41;9.30;83.30
1347;DHT22;667;48.796;9.480;2022-11-20T04:32:06;9.30;83.00
1347;DHT22;667;48.796;9.480;2022-11-20T04:34:32;9.30;83.00
1347;DHT22;667;48.796;9.480;2022-11-20T04:36:57;9.30;83.10
1347;DHT22;667;48.796;9.480;2022-11-20T04:39:23;9.30;83.20
1347;DHT22;667;48.796;9.480;2022-11-20T04:41:48;9.30;83.10
1347;DHT22;667;48.796;9.480;2022-11-20T04:44:34;9.40;83.20
1347;DHT22;667;48.796;9.480;2022-11-20T04:46:59;9.40;83.20
1347;DHT22;667;48.796;9.480;2022-11-20T04:49:25;9.30;83.00
1347;DHT22;667;48.796;9.480;2022-11-20T04:51:53;9.30;83.00
1347;DHT22;667;48.796;9.480;2022-11-20T04:54:18;9.30;82.90
1347;DHT22;667;48.796;9.480;2022-11-20T04:56:47;9.30;83.00
1347;DHT22;667;48.796;9.480;2022-11-20T04:59:13;9.30;83.00
1347;DHT22;667;48.796;9.480;2022-11-20T05:01:38;9.30;83.10
1347;DHT22;667;48.796;9.480;2022-11-20T05:04:04;9.40;83.10
1347;DHT22;667;48.796;9.480;2022-11-20T05:06:31;9.40;83.00
1347;DHT22;667;48.796;9.480;2022-11-20T05:08:56;9.40;82.90
1347;DHT22;667;48.796;9.480;2022-11-20T05:11:22;9.30;82.60
1347;DHT22;667;48.796;9.480;2022-11-20T05:13:48;9.30;82.60
1347;DHT22;667;48.796;9.480;2022-11-20T05:16:16;9.30;82.60
1347;DHT22;667;48.796;9.480;2022-11-20T05:18:42;9.40;82.80
1347;DHT22;667;48.796;9.480;2022-11-20T05:21:09;9.40;82.90
1347;DHT22;667;48.796;9.480;2022-11-20T05:23:35;9.40;82.80
1347;DHT22;667;48.796;9.480;2022-11-20T05:26:01;9.40;82.50
1347;DHT22;667;48.796;9.480;2022-11-20T05:28:29;9.40;82.50
1347;DHT22;667;48.796;9.480;2022-11-20T05:30:54;9.40;82.30
1347;DHT22;667;48.796;9.480;2022-11-20T05:33:21;9.40;82.30
1347;DHT22;667;48.796;9.480;2022-11-20T05:35:46;9.40;82.30
1347;DHT22;667;48.796;9.480;2022-11-20T05:38:13;9.40;82.30
1347;DHT22;667;48.796;9.480;2022-11-20T05:40:38;9.40;82.30
1347;DHT22;667;48.796;9.480;2022-11-20T05:43:04;9.40;82.30
1347;DHT22;667;48.796;9.480;2022-11-20T05:45:30;9.40;82.20
1347;DHT22;667;48.796;9.480;2022-11-20T05:47:59;9.40;82.00
1347;DHT22;667;48.796;9.480;2022-11-20T05:50:26;9.40;81.70
1347;DHT22;667;48.796;9.480;2022-11-20T05:52:51;9.40;81.70
1347;DHT22;667;48.796;9.480;2022-11-20T05:55:17;9.40;81.70
1347;DHT22;667;48.796;9.480;2022-11-20T05:57:43;9.40;81.50
1347;DHT22;667;48.796;9.480;2022-11-20T06:00:09;9.40;81.60
1347;DHT22;667;48.796;9.480;2022-11-20T06:02:35;9.40;81.60
1347;DHT22;667;48.796;9.480;2022-11-20T06:05:01;9.40;81.50
1347;DHT22;667;48.796;9.480;2022-11-20T06:07:27;9.40;81.50
1347;DHT22;667;48.796;9.480;2022-11-20T06:09:52;9.40;81.50
1347;DHT22;667;48.796;9.480;2022-11-20T06:12:18;9.40;81.60
1347;DHT22;667;48.796;9.480;2022-11-20T06:14:43;9.40;81.60
1347;DHT22;667;48.796;9.480;2022-11-20T06:17:09;9.40;81.60
1347;DHT22;667;48.796;9.480;2022-11-20T06:19:34;9.40;81.30
1347;DHT22;667;48.796;9.480;2022-11-20T06:22:00;9.40;81.30
1347;DHT22;667;48.796;9.480;2022-11-20T06:24:25;9.40;81.40
1347;DHT22;667;48.796;9.480;2022-11-20T06:26:51;9.40;81.30
1347;DHT22;667;48.796;9.480;2022-11-20T06:29:17;9.40;81.30
1347;DHT22;667;48.796;9.480;2022-11-20T06:31:42;9.40;81.00
1347;DHT22;667;48.796;9.480;2022-11-20T06:34:08;9.40;81.00
1347;DHT22;667;48.796;9.480;2022-11-20T06:36:34;9.40;81.20
1347;DHT22;667;48.796;9.480;2022-11-20T06:39:00;9.40;81.20
1347;DHT22;667;48.796;9.480;2022-11-20T06:41:25;9.40;81.20
1347;DHT22;667;48.796;9.480;2022-11-20T06:43:51;9.50;81.20
1347;DHT22;667;48.796;9.480;2022-11-20T06:46:19;9.40;80.90
1347;DHT22;667;48.796;9.480;2022-11-20T06:48:48;9.40;81.00
1347;DHT22;667;48.796;9.480;2022-11-20T06:51:14;9.50;80.70
1347;DHT22;667;48.796;9.480;2022-11-20T06:53:40;9.40;80.70
1347;DHT22;667;48.796;9.480;2022-11-20T06:56:06;9.40;80.70
1347;DHT22;667;48.796;9.480;2022-11-20T06:58:33;9.40;80.30
1347;DHT22;667;48.796;9.480;2022-11-20T07:01:06;9.40;80.50
1347;DHT22;667;48.796;9.480;2022-11-20T07:03:32;9.40;80.60
1347;DHT22;667;48.796;9.480;2022-11-20T07:05:58;9.40;80.70
1347;DHT22;667;48.796;9.480;2022-11-20T07:08:25;9.50;80.80
1347;DHT22;667;48.796;9.480;2022-11-20T07:10:51;9.50;80.40
1347;DHT22;667;48.796;9.480;2022-11-20T07:13:16;9.40;80.30
1347;DHT22;667;48.796;9.480;2022-11-20T07:15:42;9.50;80.40
1347;DHT22;667;48.796;9.480;2022-11-20T07:18:07;9.50;80.40
1347;DHT22;667;48.796;9.480;2022-11-20T07:20:33;9.50;80.50
1347;DHT22;667;48.796;9.480;2022-11-20T07:22:59;9.40;80.40
1347;DHT22;667;48.796;9.480;2022-11-20T07:25:26;9.50;80.50
1347;DHT22;667;48.796;9.480;2022-11-20T07:27:51;9.50;80.50
1347;DHT22;667;48.796;9.480;2022-11-20T07:30:18;9.50;80.60
1347;DHT22;667;48.796;9.480;2022-11-20T07:32:47;9.50;80.50
1347;DHT22;667;48.796;9.480;2022-11-20T07:35:13;9.50;80.20
1347;DHT22;667;48.796;9.480;2022-11-20T07:37:39;9.50;80.10
1347;DHT22;667;48.796;9.480;2022-11-20T07:40:04;9.50;80.10
1347;DHT22;667;48.796;9.480;2022-11-20T07:42:30;9.50;80.20
1347;DHT22;667;48.796;9.480;2022-11-20T07:44:56;9.50;80.00
1347;DHT22;667;48.796;9.480;2022-11-20T07:47:21;9.50;80.20
1347;DHT22;667;48.796;9.480;2022-11-20T07:49:47;9.60;80.40
1347;DHT22;667;48.796;9.480;2022-11-20T07:52:12;9.60;80.40
1347;DHT22;667;48.796;9.480;2022-11-20T07:54:38;9.60;80.30
1347;DHT22;667;48.796;9.480;2022-11-20T07:57:03;9.60;79.80
1347;DHT22;667;48.796;9.480;2022-11-20T07:59:29;9.60;79.80
1347;DHT22;667;48.796;9.480;2022-11-20T08:01:55;9.60;79.70
1347;DHT22;667;48.796;9.480;2022-11-20T08:04:20;9.60;79.80
1347;DHT22;667;48.796;9.480;2022-11-20T08:06:46;9.60;79.30
1347;DHT22;667;48.796;9.480;2022-11-20T08:09:12;9.70;79.60
1347;DHT22;667;48.796;9.480;2022-11-20T08:11:38;9.60;79.70
1347;DHT22;667;48.796;9.480;2022-11-20T08:14:22;9.70;80.00
1347;DHT22;667;48.796;9.480;2022-11-20T08:16:48;9.70;80.00
1347;DHT22;667;48.796;9.480;2022-11-20T08:19:16;9.80;79.80
1347;DHT22;667;48.796;9.480;2022-11-20T08:21:42;9.80;79.90
1347;DHT22;667;48.796;9.480;2022-11-20T08:24:09;9.80;80.00
1347;DHT22;667;48.796;9.480;2022-11-20T08:26:35;9.80;80.00
1347;DHT22;667;48.796;9.480;2022-11-20T08:29:02;9.80;79.80
1347;DHT22;667;48.796;9.480;2022-11-20T08:31:28;9.80;79.60
1347;DHT22;667;48.796;9.480;2022-11-20T08:33:55;9.80;79.70
1347;DHT22;667;48.796;9.480;2022-11-20T08:36:21;9.80;79.80
1347;DHT22;667;48.796;9.480;2022-11-20T08:38:52;9.80;79.90
1347;DHT22;667;48.796;9.480;2022-11-20T08:41:18;9.80;79.70
1347;DHT22;667;48.796;9.480;2022-11-20T08:43:52;9.80;79.60
1347;DHT22;667;48.796;9.480;2022-11-20T08:46:18;9.80;79.70
1347;DHT22;667;48.796;9.480;2022-11-20T08:48:44;9.90;79.80
1347;DHT22;667;48.796;9.480;2022-11-20T08:51:11;9.90;79.80
1347;DHT22;667;48.796;9.480;2022-11-20T08:53:37;9.90;80.00
1347;DHT22;667;48.796;9.480;2022-11-20T08:56:03;10.00;79.00
1347;DHT22;667;48.796;9.480;2022-11-20T08:58:29;10.00;79.00
1347;DHT22;667;48.796;9.480;2022-11-20T09:00:54;10.10;78.70
1347;DHT22;667;48.796;9.480;2022-11-20T09:03:20;10.10;78.60
1347;DHT22;667;48.796;9.480;2022-11-20T09:05:45;10.10;78.50
1347;DHT22;667;48.796;9.480;2022-11-20T09:08:11;10.10;78.40
1347;DHT22;667;48.796;9.480;2022-11-20T09:10:37;10.10;78.10
1347;DHT22;667;48.796;9.480;2022-11-20T09:13:05;10.10;78.00
1347;DHT22;667;48.796;9.480;2022-11-20T09:15:31;10.10;78.90
1347;DHT22;667;48.796;9.480;2022-11-20T09:17:59;10.10;78.40
1347;DHT22;667;48.796;9.480;2022-11-20T09:20:26;10.20;78.50
1347;DHT22;667;48.796;9.480;2022-11-20T09:22:52;10.20;78.70
1347;DHT22;667;48.796;9.480;2022-11-20T09:25:18;10.20;78.80
1347;DHT22;667;48.796;9.480;2022-11-20T09:27:44;10.20;78.50
1347;DHT22;667;48.796;9.480;2022-11-20T09:30:12;10.20;78.40
1347;DHT22;667;48.796;9.480;2022-11-20T09:32:41;10.20;78.30
1347;DHT22;667;48.796;9.480;2022-11-20T09:35:07;10.20;78.10
1347;DHT22;667;48.796;9.480;2022-11-20T09:37:33;10.30;78.00
1347;DHT22;667;48.796;9.480;2022-11-20T09:39:59;10.20;78.00
1347;DHT22;667;48.796;9.480;2022-11-20T09:50:38;10.20;78.30
1347;DHT22;667;48.796;9.480;2022-11-20T09:53:13;10.20;78.50
1347;DHT22;667;48.796;9.480;2022-11-20T09:55:41;10.20;78.50
1347;DHT22;667;48.796;9.480;2022-11-20T09:58:16;10.20;78.60
1347;DHT22;667;48.796;9.480;2022-11-20T10:00:44;10.20;78.80
1347;DHT22;667;48.796;9.480;2022-11-20T10:03:18;10.20;78.90
1347;DHT22;667;48.796;9.480;2022-11-20T10:05:54;10.20;78.90
1347;DHT22;667;48.796;9.480;2022-11-20T10:08:27;10.20;79.00
1347;DHT22;667;48.796;9.480;2022-11-20T10:16:34;10.20;79.20
1347;DHT22;667;48.796;9.480;2022-11-20T10:24:55;10.30;79.30
1347;DHT22;667;48.796;9.480;2022-11-20T10:30:09;10.30;79.30
1347;DHT22;667;48.796;9.480;2022-11-20T10:32:42;10.30;79.20
1347;DHT22;667;48.796;9.480;2022-11-20T10:37:44;10.30;79.40
1347;DHT22;667;48.796;9.480;2022-11-20T10:40:28;10.30;79.30
1347;DHT22;667;48.796;9.480;2022-11-20T10:43:03;10.30;79.30
1347;DHT22;667;48.796;9.480;2022-11-20T10:48:27;10.30;79.20
1347;DHT22;667;48.796;9.480;2022-11-20T10:56:51;10.30;79.80
1347;DHT22;667;48.796;9.480;2022-11-20T10:59:41;10.20;80.20
1347;DHT22;667;48.796;9.480;2022-11-20T11:02:17;10.20;80.60
1347;DHT22;667;48.796;9.480;2022-11-20T11:04:46;10.20;80.50
1347;DHT22;667;48.796;9.480;2022-11-20T11:09:54;10.10;81.40
1347;DHT22;667;48.796;9.480;2022-11-20T11:12:25;10.10;81.60
1347;DHT22;667;48.796;9.480;2022-11-20T11:14:54;10.10;81.70
1347;DHT22;667;48.796;9.480;2022-11-20T11:22:50;10.10;82.10
1347;DHT22;667;48.796;9.480;2022-11-20T11:27:50;10.10;82.50
1347;DHT22;667;48.796;9.480;2022-11-20T11:30:17;10.00;82.50
1347;DHT22;667;48.796;9.480;2022-11-20T11:32:44;10.00;82.60
1347;DHT22;667;48.796;9.480;2022-11-20T11:35:26;10.00;82.80
1347;DHT22;667;48.796;9.480;2022-11-20T11:38:01;10.10;83.10
1347;DHT22;667;48.796;9.480;2022-11-20T11:40:27;10.10;83.00
1347;DHT22;667;48.796;9.480;2022-11-20T11:42:59;10.10;83.00
1347;DHT22;667;48.796;9.480;2022-11-20T11:45:27;10.10;83.10
1347;DHT22;667;48.796;9.480;2022-11-20T11:47:55;10.10;83.40
1347;DHT22;667;48.796;9.480;2022-11-20T11:50:26;10.10;83.50
1347;DHT22;667;48.796;9.480;2022-11-20T11:56:07;10.20;84.10
1347;DHT22;667;48.796;9.480;2022-11-20T11:58:52;10.30;84.40
1347;DHT22;667;48.796;9.480;2022-11-20T12:01:54;10.30;84.60
1347;DHT22;667;48.796;9.480;2022-11-20T12:04:49;10.40;84.80
1347;DHT22;667;48.796;9.480;2022-11-20T12:07:27;10.60;85.40
1347;DHT22;667;48.796;9.480;2022-11-20T12:09:58;10.70;85.30
1347;DHT22;667;48.796;9.480;2022-11-20T12:12:39;10.80;85.20
1347;DHT22;667;48.796;9.480;2022-11-20T12:15:11;10.80;85.00
1347;DHT22;667;48.796;9.480;2022-11-20T12:17:38;10.90;85.10
1347;DHT22;667;48.796;9.480;2022-11-20T12:20:15;11.00;85.20
1347;DHT22;667;48.796;9.480;2022-11-20T12:23:00;11.10;84.90
1347;DHT22;667;48.796;9.480;2022-11-20T12:25:32;11.10;84.40
1347;DHT22;667;48.796;9.480;2022-11-20T12:28:09;11.20;84.20
1347;DHT22;667;48.796;9.480;2022-11-20T12:45:05;11.30;80.50
1347;DHT22;667;48.796;9.480;2022-11-20T12:53:05;11.20;80.00
1347;DHT22;667;48.796;9.480;2022-11-20T12:58:11;11.20;79.50
1347;DHT22;667;48.796;9.480;2022-11-20T13:00:46;11.20;79.20
1347;DHT22;667;48.796;9.480;2022-11-20T13:03:36;11.20;79.00
1347;DHT22;667;48.796;9.480;2022-11-20T13:06:19;11.20;78.90
1347;DHT22;667;48.796;9.480;2022-11-20T13:08:53;11.30;78.80
1347;DHT22;667;48.796;9.480;2022-11-20T13:16:50;11.30;77.80
1347;DHT22;667;48.796;9.480;2022-11-20T13:19:18;11.30;77.60
1347;DHT22;667;48.796;9.480;2022-11-20T13:21:45;11.30;77.40
1347;DHT22;667;48.796;9.480;2022-11-20T13:29:37;11.40;75.60
1347;DHT22;667;48.796;9.480;2022-11-20T13:34:28;11.40;73.10
1347;DHT22;667;48.796;9.480;2022-11-20T13:36:56;11.50;72.30
1347;DHT22;667;48.796;9.480;2022-11-20T13:39:27;11.50;71.80
1347;DHT22;667;48.796;9.480;2022-11-20T13:42:01;11.40;70.80
1347;DHT22;667;48.796;9.480;2022-11-20T13:44:36;11.40;69.50
1347;DHT22;667;48.796;9.480;2022-11-20T13:47:03;11.40;69.50
1347;DHT22;667;48.796;9.480;2022-11-20T13:49:39;11.40;68.80
1347;DHT22;667;48.796;9.480;2022-11-20T14:00:58;11.40;68.80
1347;DHT22;667;48.796;9.480;2022-11-20T14:03:26;11.30;67.30
1347;DHT22;667;48.796;9.480;2022-11-20T14:06:01;11.40;67.10
1347;DHT22;667;48.796;9.480;2022-11-20T14:11:19;11.30;67.30
1347;DHT22;667;48.796;9.480;2022-11-20T14:14:04;11.30;66.40
1347;DHT22;667;48.796;9.480;2022-11-20T14:16:33;11.30;66.30
1347;DHT22;667;48.796;9.480;2022-11-20T14:21:45;11.30;66.10
1347;DHT22;667;48.796;9.480;2022-11-20T14:24:12;11.30;66.40
1347;DHT22;667;48.796;9.480;2022-11-20T14:26:42;11.20;66.40
1347;DHT22;667;48.796;9.480;2022-11-20T14:31:47;11.20;66.90
1347;DHT22;667;48.796;9.480;2022-11-20T14:34:27;11.30;67.00
1347;DHT22;667;48.796;9.480;2022-11-20T14:36:57;11.30;67.20
1347;DHT22;667;48.796;9.480;2022-11-20T14:39:30;11.30;68.30
1347;DHT22;667;48.796;9.480;2022-11-20T14:41:56;11.30;68.00
1347;DHT22;667;48.796;9.480;2022-11-20T14:44:34;11.30;67.40
1347;DHT22;667;48.796;9.480;2022-11-20T14:47:02;11.30;67.10
1347;DHT22;667;48.796;9.480;2022-11-20T14:49:30;11.30;66.90
1347;DHT22;667;48.796;9.480;2022-11-20T14:52:17;11.30;66.60
1347;DHT22;667;48.796;9.480;2022-11-20T14:54:54;11.20;66.10
1347;DHT22;667;48.796;9.480;2022-11-20T14:57:34;11.20;66.00
1347;DHT22;667;48.796;9.480;2022-11-20T15:02:43;11.10;66.50
1347;DHT22;667;48.796;9.480;2022-11-20T15:05:09;11.10;67.30
1347;DHT22;667;48.796;9.480;2022-11-20T15:07:37;11.10;67.20
1347;DHT22;667;48.796;9.480;2022-11-20T15:12:34;11.00;66.20
1347;DHT22;667;48.796;9.480;2022-11-20T15:15:01;11.00;66.00
1347;DHT22;667;48.796;9.480;2022-11-20T15:17:27;10.90;66.30
1347;DHT22;667;48.796;9.480;2022-11-20T15:19:53;10.90;66.40
1347;DHT22;667;48.796;9.480;2022-11-20T15:22:19;10.80;66.40
1347;DHT22;667;48.796;9.480;2022-11-20T15:24:45;10.80;66.70
1347;DHT22;667;48.796;9.480;2022-11-20T15:27:11;10.70;66.90
1347;DHT22;667;48.796;9.480;2022-11-20T15:29:36;10.70;66.90
1347;DHT22;667;48.796;9.480;2022-11-20T15:32:02;10.70;67.10
1347;DHT22;667;48.796;9.480;2022-11-20T15:34:28;10.70;67.50
1347;DHT22;667;48.796;9.480;2022-11-20T15:36:54;10.60;67.50
1347;DHT22;667;48.796;9.480;2022-11-20T15:39:20;10.60;67.80
1347;DHT22;667;48.796;9.480;2022-11-20T15:41:46;10.60;68.20
1347;DHT22;667;48.796;9.480;2022-11-20T15:44:12;10.60;68.40
1347;DHT22;667;48.796;9.480;2022-11-20T15:46:40;10.60;68.70
1347;DHT22;667;48.796;9.480;2022-11-20T15:49:12;10.60;68.60
1347;DHT22;667;48.796;9.480;2022-11-20T15:51:41;10.60;69.50
1347;DHT22;667;48.796;9.480;2022-11-20T15:54:12;10.50;69.00
1347;DHT22;667;48.796;9.480;2022-11-20T15:56:38;10.50;69.20
1347;DHT22;667;48.796;9.480;2022-11-20T15:59:04;10.50;69.60
1347;DHT22;667;48.796;9.480;2022-11-20T16:01:30;10.40;69.90
1347;DHT22;667;48.796;9.480;2022-11-20T16:03:56;10.40;70.30
1347;DHT22;667;48.796;9.480;2022-11-20T16:06:21;10.40;70.30
1347;DHT22;667;48.796;9.480;2022-11-20T16:08:47;10.40;70.50
1347;DHT22;667;48.796;9.480;2022-11-20T16:11:14;10.30;70.80
1347;DHT22;667;48.796;9.480;2022-11-20T16:13:40;10.30;71.20
1347;DHT22;667;48.796;9.480;2022-11-20T16:16:30;10.30;71.50
1347;DHT22;667;48.796;9.480;2022-11-20T16:18:56;10.30;71.80
1347;DHT22;667;48.796;9.480;2022-11-20T16:21:22;10.20;72.00
1347;DHT22;667;48.796;9.480;2022-11-20T16:24:04;10.10;72.30
1347;DHT22;667;48.796;9.480;2022-11-20T16:26:30;10.10;72.70
1347;DHT22;667;48.796;9.480;2022-11-20T16:28:57;10.00;72.80
1347;DHT22;667;48.796;9.480;2022-11-20T16:31:23;9.90;74.30
1347;DHT22;667;48.796;9.480;2022-11-20T16:33:50;9.90;74.80
1347;DHT22;667;48.796;9.480;2022-11-20T16:36:16;9.80;74.90
1347;DHT22;667;48.796;9.480;2022-11-20T16:38:42;9.80;75.20
1347;DHT22;667;48.796;9.480;2022-11-20T16:41:08;9.70;75.40
1347;DHT22;667;48.796;9.480;2022-11-20T16:43:46;9.70;75.80
1347;DHT22;667;48.796;9.480;2022-11-20T16:46:14;9.70;76.00
1347;DHT22;667;48.796;9.480;2022-11-20T16:48:40;9.60;76.20
1347;DHT22;667;48.796;9.480;2022-11-20T16:51:08;9.60;76.50
1347;DHT22;667;48.796;9.480;2022-11-20T16:53:35;9.60;76.80
1347;DHT22;667;48.796;9.480;2022-11-20T16:56:11;9.60;77.10
1347;DHT22;667;48.796;9.480;2022-11-20T16:58:38;9.60;77.40
1347;DHT22;667;48.796;9.480;2022-11-20T17:01:08;9.60;77.50
1347;DHT22;667;48.796;9.480;2022-11-20T17:03:36;9.60;77.80
1347;DHT22;667;48.796;9.480;2022-11-20T17:06:13;9.60;78.00
1347;DHT22;667;48.796;9.480;2022-11-20T17:08:39;9.60;78.20
1347;DHT22;667;48.796;9.480;2022-11-20T17:11:10;9.60;78.40
1347;DHT22;667;48.796;9.480;2022-11-20T17:13:36;9.60;78.70
1347;DHT22;667;48.796;9.480;2022-11-20T17:16:07;9.60;78.80
1347;DHT22;667;48.796;9.480;2022-11-20T17:18:33;9.60;79.00
1347;DHT22;667;48.796;9.480;2022-11-20T17:20:59;9.60;79.30
1347;DHT22;667;48.796;9.480;2022-11-20T17:23:30;9.60;79.30
1347;DHT22;667;48.796;9.480;2022-11-20T17:26:03;9.60;80.20
1347;DHT22;667;48.796;9.480;2022-11-20T17:28:30;9.60;79.50
1347;DHT22;667;48.796;9.480;2022-11-20T17:31:05;9.60;79.50
1347;DHT22;667;48.796;9.480;2022-11-20T17:33:31;9.50;80.30
1347;DHT22;667;48.796;9.480;2022-11-20T17:35:56;9.50;80.40
1347;DHT22;667;48.796;9.480;2022-11-20T17:38:22;9.50;79.70
1347;DHT22;667;48.796;9.480;2022-11-20T17:40:48;9.50;79.70
1347;DHT22;667;48.796;9.480;2022-11-20T17:43:13;9.50;79.90
1347;DHT22;667;48.796;9.480;2022-11-20T17:45:39;9.50;80.00
1347;DHT22;667;48.796;9.480;2022-11-20T17:48:04;9.50;80.10
1347;DHT22;667;48.796;9.480;2022-11-20T17:50:30;9.50;80.60
1347;DHT22;667;48.796;9.480;2022-11-20T17:52:56;9.50;80.20
1347;DHT22;667;48.796;9.480;2022-11-20T17:55:21;9.50;80.40
1347;DHT22;667;48.796;9.480;2022-11-20T17:57:47;9.50;80.40
1347;DHT22;667;48.796;9.480;2022-11-20T18:00:22;9.50;80.40
1347;DHT22;667;48.796;9.480;2022-11-20T18:02:48;9.50;80.30
1347;DHT22;667;48.796;9.480;2022-11-20T18:05:14;9.50;80.40
1347;DHT22;667;48.796;9.480;2022-11-20T18:07:40;9.50;80.40
1347;DHT22;667;48.796;9.480;2022-11-20T18:10:06;9.50;80.50
1347;DHT22;667;48.796;9.480;2022-11-20T18:12:32;9.50;80.20
1347;DHT22;667;48.796;9.480;2022-11-20T18:14:58;9.50;79.60
1347;DHT22;667;48.796;9.480;2022-11-20T18:17:24;9.50;79.20
1347;DHT22;667;48.796;9.480;2022-11-20T18:19:50;9.60;79.00
1347;DHT22;667;48.796;9.480;2022-11-20T18:22:17;9.60;78.40
1347;DHT22;667;48.796;9.480;2022-11-20T18:24:44;9.60;78.00
1347;DHT22;667;48.796;9.480;2022-11-20T18:27:15;9.60;77.80